Time;durP1;ratioP1;P1;durP2;ratioP2;P2;SDS_P1;SDS_P2;PMS_P1;PMS_P2;Temp;Humidity;BMP_temperature;BMP_pressure;BME280_temperature;BME280_humidity;BME280_pressure;Samples;Min_cycle;Max_cycle;Signal;HPM_P1;HPM_P2
2023/04/07 00:00:41;;;;;;;9.67;8.70;;;2.10;99.90;;;;;;5046216;28;20650;-74
2023/04/07 00:03:07;;;;;;;9.30;8.30;;;2.10;99.90;;;;;;5048907;28;20205;-74
2023/04/07 00:05:33;;;;;;;9.83;8.50;;;2.10;99.90;;;;;;5031100;28;20195;-74
2023/04/07 00:07:59;;;;;;;11.23;9.00;;;2.10;99.90;;;;;;5044878;28;20239;-74
2023/04/07 00:10:25;;;;;;;11.23;9.33;;;2.10;99.90;;;;;;5047075;28;20208;-74
2023/04/07 00:12:50;;;;;;;12.27;10.10;;;2.10;99.90;;;;;;5052049;28;20207;-74
2023/04/07 00:15:16;;;;;;;12.23;9.57;;;2.00;99.90;;;;;;5045751;28;20184;-74
2023/04/07 00:17:42;;;;;;;13.37;10.13;;;2.00;99.90;;;;;;5052583;28;20171;-74
2023/04/07 00:20:08;;;;;;;11.50;9.47;;;1.90;99.90;;;;;;5050847;28;20202;-75
2023/04/07 00:22:33;;;;;;;11.07;9.33;;;1.90;99.90;;;;;;5055542;28;20183;-74
2023/04/07 00:24:59;;;;;;;14.07;9.70;;;1.90;99.90;;;;;;5051049;28;20188;-75
2023/04/07 00:27:25;;;;;;;11.43;9.77;;;1.80;99.90;;;;;;5044987;28;20224;-74
2023/04/07 00:29:50;;;;;;;10.70;9.50;;;1.90;99.90;;;;;;5048149;28;20176;-74
2023/04/07 00:32:16;;;;;;;12.10;10.17;;;1.80;99.90;;;;;;5034881;28;20241;-74
2023/04/07 00:34:41;;;;;;;11.60;9.60;;;1.80;99.90;;;;;;5044189;28;20279;-75
2023/04/07 00:37:07;;;;;;;10.50;9.40;;;1.80;99.90;;;;;;5044969;28;20184;-74
2023/04/07 00:39:33;;;;;;;11.20;9.40;;;1.70;99.90;;;;;;5027376;28;20176;-74
2023/04/07 00:41:58;;;;;;;11.07;9.40;;;1.70;99.90;;;;;;5049691;28;20190;-74
2023/04/07 00:44:24;;;;;;;10.53;8.90;;;1.70;99.90;;;;;;5042081;28;20213;-75
2023/04/07 00:46:50;;;;;;;9.50;8.07;;;1.70;99.90;;;;;;5045106;28;20441;-74
2023/04/07 00:49:19;;;;;;;9.73;8.73;;;1.80;99.90;;;;;;5041995;28;20180;-75
2023/04/07 00:51:45;;;;;;;9.80;8.80;;;1.70;99.90;;;;;;5031849;28;20184;-74
2023/04/07 00:54:11;;;;;;;10.20;8.47;;;1.70;99.90;;;;;;5033679;28;20195;-74
2023/04/07 00:56:37;;;;;;;12.13;8.33;;;1.70;99.90;;;;;;5053278;28;20193;-74
2023/04/07 00:59:05;;;;;;;11.10;8.57;;;1.70;99.90;;;;;;5042596;28;20194;-74
2023/04/07 01:01:57;;;;;;;8.80;7.90;;;1.70;99.90;;;;;;5041505;28;20195;-74
2023/04/07 01:04:42;;;;;;;10.33;7.70;;;1.80;99.90;;;;;;5044715;28;20203;-74
2023/04/07 01:07:14;;;;;;;9.20;8.17;;;1.80;99.90;;;;;;5030704;28;20702;-74
2023/04/07 01:09:46;;;;;;;9.27;7.70;;;1.70;99.90;;;;;;5034572;28;20208;-74
2023/04/07 01:12:23;;;;;;;9.20;7.83;;;1.60;99.90;;;;;;5041337;28;20263;-74
2023/04/07 01:14:53;;;;;;;8.77;7.97;;;1.50;99.90;;;;;;5049787;28;20180;-74
2023/04/07 01:17:22;;;;;;;8.53;7.77;;;1.40;99.90;;;;;;5030734;28;20183;-75
2023/04/07 01:19:55;;;;;;;8.90;8.00;;;1.40;99.90;;;;;;5043924;28;20196;-74
2023/04/07 01:22:27;;;;;;;9.50;7.93;;;1.30;99.90;;;;;;5043073;28;20201;-74
2023/04/07 01:25:21;;;;;;;10.87;8.23;;;1.30;99.90;;;;;;5027461;28;20281;-74
2023/04/07 01:28:24;;;;;;;9.63;8.10;;;1.30;99.90;;;;;;5048033;28;20306;-74
2023/04/07 01:30:52;;;;;;;9.80;7.57;;;1.20;99.90;;;;;;5053024;28;20271;-74
2023/04/07 01:33:20;;;;;;;8.93;8.03;;;1.20;99.90;;;;;;5047131;28;20207;-74
2023/04/07 01:35:47;;;;;;;9.60;7.93;;;1.20;99.90;;;;;;5033801;28;20493;-74
2023/04/07 01:38:13;;;;;;;12.93;8.80;;;1.10;99.90;;;;;;5049135;28;20551;-74
2023/04/07 01:40:40;;;;;;;10.17;8.27;;;1.10;99.90;;;;;;5051980;28;20190;-74
2023/04/07 01:43:07;;;;;;;8.57;7.67;;;1.10;99.90;;;;;;5040446;28;20212;-74
2023/04/07 01:45:35;;;;;;;9.43;8.10;;;1.10;99.90;;;;;;5042486;28;20172;-74
2023/04/07 01:48:01;;;;;;;9.20;8.30;;;1.10;99.90;;;;;;5033275;28;20691;-74
2023/04/07 01:50:28;;;;;;;11.43;9.00;;;1.10;99.90;;;;;;5045860;28;20222;-74
2023/04/07 01:52:55;;;;;;;10.30;8.03;;;1.10;99.90;;;;;;5034536;28;20301;-74
2023/04/07 01:55:21;;;;;;;9.10;8.20;;;1.00;99.90;;;;;;5051461;28;20184;-74
2023/04/07 01:57:47;;;;;;;8.87;7.97;;;1.00;99.90;;;;;;5031922;28;20196;-74
2023/04/07 02:00:13;;;;;;;9.40;8.47;;;1.00;99.90;;;;;;5031826;28;20187;-74
2023/04/07 02:02:43;;;;;;;9.30;8.30;;;1.00;99.90;;;;;;5052336;28;20216;-74
2023/04/07 02:05:13;;;;;;;10.90;9.07;;;1.10;99.90;;;;;;5048705;28;20184;-74
2023/04/07 02:08:02;;;;;;;9.03;8.07;;;1.10;99.90;;;;;;5048266;28;20274;-74
2023/04/07 02:10:31;;;;;;;10.37;8.43;;;1.00;99.90;;;;;;5052130;28;20709;-74
2023/04/07 02:12:59;;;;;;;10.53;8.67;;;0.90;99.90;;;;;;5055920;28;20200;-74
2023/04/07 02:15:26;;;;;;;10.00;9.00;;;0.90;99.90;;;;;;5054174;28;20527;-75
2023/04/07 02:17:55;;;;;;;11.57;9.60;;;0.80;99.90;;;;;;5050355;28;20183;-74
2023/04/07 02:20:21;;;;;;;10.03;9.03;;;0.80;99.90;;;;;;5049857;28;20196;-74
2023/04/07 02:22:47;;;;;;;10.83;8.80;;;0.80;99.90;;;;;;5050792;28;20687;-74
2023/04/07 02:25:21;;;;;;;14.43;9.63;;;0.70;99.90;;;;;;5051628;28;20184;-74
2023/04/07 02:27:47;;;;;;;13.83;9.70;;;0.70;99.90;;;;;;5047787;28;20691;-74
2023/04/07 02:30:13;;;;;;;10.80;9.33;;;0.70;99.90;;;;;;5050729;28;20195;-74
2023/04/07 02:32:39;;;;;;;11.13;9.03;;;0.60;99.90;;;;;;5039707;28;20211;-74
2023/04/07 02:35:05;;;;;;;13.07;9.23;;;0.60;99.90;;;;;;5054208;28;20178;-74
2023/04/07 02:37:30;;;;;;;9.67;8.77;;;0.60;99.90;;;;;;5048486;28;20184;-74
2023/04/07 02:39:56;;;;;;;12.27;8.50;;;0.60;99.90;;;;;;5052041;28;20183;-74
2023/04/07 02:42:22;;;;;;;10.87;9.20;;;0.60;99.90;;;;;;5048639;28;20184;-74
2023/04/07 02:44:47;;;;;;;13.07;9.37;;;0.60;99.90;;;;;;5054283;28;20270;-74
2023/04/07 02:47:13;;;;;;;11.27;9.37;;;0.60;99.90;;;;;;5055276;28;20203;-74
2023/04/07 02:49:38;;;;;;;11.43;9.30;;;0.60;99.90;;;;;;5032151;28;20188;-73
2023/04/07 02:52:04;;;;;;;11.20;9.53;;;0.50;99.90;;;;;;5034048;28;20187;-74
2023/04/07 02:54:30;;;;;;;10.90;9.30;;;0.50;99.90;;;;;;5030073;28;20676;-73
2023/04/07 02:56:56;;;;;;;11.57;9.70;;;0.40;99.90;;;;;;5035061;28;20184;-74
2023/04/07 02:59:21;;;;;;;12.17;9.47;;;0.50;99.90;;;;;;5040849;28;20651;-74
2023/04/07 03:01:47;;;;;;;10.73;8.93;;;0.50;99.90;;;;;;5047666;28;20184;-74
2023/04/07 03:04:12;;;;;;;9.70;8.70;;;0.50;99.90;;;;;;5047519;28;20196;-74
2023/04/07 03:06:38;;;;;;;10.47;9.00;;;0.50;99.90;;;;;;5045423;28;20254;-74
2023/04/07 03:09:04;;;;;;;10.30;9.30;;;0.40;99.90;;;;;;5046644;28;20184;-74
2023/04/07 03:11:29;;;;;;;10.67;8.50;;;0.40;99.90;;;;;;5042937;28;20178;-74
2023/04/07 03:13:55;;;;;;;8.97;8.07;;;0.30;99.90;;;;;;5046199;28;20199;-74
2023/04/07 03:16:30;;;;;;;11.20;8.80;;;0.30;99.90;;;;;;5048557;28;20267;-74
2023/04/07 03:18:55;;;;;;;11.47;8.97;;;0.30;99.90;;;;;;5037207;28;20266;-73
2023/04/07 03:21:21;;;;;;;13.17;9.17;;;0.20;99.90;;;;;;5045457;28;20602;-74
2023/04/07 03:23:47;;;;;;;10.23;8.93;;;0.20;99.90;;;;;;5051047;28;20219;-74
2023/04/07 03:26:12;;;;;;;9.60;8.70;;;0.20;99.90;;;;;;5044474;28;20191;-74
2023/04/07 03:28:38;;;;;;;8.60;7.80;;;0.30;99.90;;;;;;5040011;28;20421;-74
2023/04/07 03:31:03;;;;;;;9.70;8.10;;;0.30;99.90;;;;;;5033683;28;20177;-75
2023/04/07 03:33:29;;;;;;;10.20;8.23;;;0.40;99.90;;;;;;5044110;28;20608;-75
2023/04/07 03:35:55;;;;;;;8.53;7.60;;;0.50;99.90;;;;;;5041617;28;20215;-75
2023/04/07 03:38:21;;;;;;;9.43;8.53;;;0.50;99.90;;;;;;5046472;28;20187;-74
2023/04/07 03:40:46;;;;;;;8.83;7.93;;;0.40;99.90;;;;;;5045639;28;20180;-74
2023/04/07 03:43:14;;;;;;;9.93;8.93;;;0.40;99.90;;;;;;5042611;28;20200;-74
2023/04/07 03:45:43;;;;;;;11.00;8.90;;;0.40;99.90;;;;;;5043591;28;20176;-74
2023/04/07 03:48:11;;;;;;;10.17;8.63;;;0.30;99.90;;;;;;5044283;28;20213;-74
2023/04/07 03:50:38;;;;;;;11.17;9.93;;;0.40;99.90;;;;;;5048459;28;20712;-74
2023/04/07 03:53:04;;;;;;;11.80;9.47;;;0.30;99.90;;;;;;5035500;28;20204;-74
2023/04/07 03:55:30;;;;;;;10.77;9.47;;;0.30;99.90;;;;;;5031350;28;20183;-74
2023/04/07 03:57:55;;;;;;;10.60;9.03;;;0.20;99.90;;;;;;5047416;28;20186;-73
2023/04/07 04:00:21;;;;;;;11.07;9.53;;;0.10;99.90;;;;;;5028693;28;20599;-74
2023/04/07 04:02:47;;;;;;;10.43;9.33;;;0.10;99.90;;;;;;5051605;28;20699;-73
2023/04/07 04:05:12;;;;;;;9.87;8.87;;;0.00;99.90;;;;;;5050174;28;20171;-74
2023/04/07 04:07:38;;;;;;;11.60;9.17;;;0.00;99.90;;;;;;5031727;28;20572;-74
2023/04/07 04:10:04;;;;;;;12.80;9.20;;;0.00;99.90;;;;;;5052576;28;20186;-73
2023/04/07 04:12:29;;;;;;;9.90;8.70;;;0.10;99.90;;;;;;5039415;28;20603;-73
2023/04/07 04:14:55;;;;;;;10.73;9.63;;;0.10;99.90;;;;;;5053228;28;20207;-74
2023/04/07 04:17:20;;;;;;;10.20;9.10;;;0.10;99.90;;;;;;5042411;28;20690;-74
2023/04/07 04:19:46;;;;;;;12.93;9.43;;;0.00;99.90;;;;;;5047545;28;20235;-74
2023/04/07 04:22:12;;;;;;;15.93;9.87;;;0.00;99.90;;;;;;5050176;28;20175;-73
2023/04/07 04:24:37;;;;;;;10.00;9.00;;;-0.10;99.90;;;;;;5046998;28;20235;-74
2023/04/07 04:27:03;;;;;;;11.57;9.63;;;-0.10;99.90;;;;;;5035463;28;20294;-74
2023/04/07 04:29:28;;;;;;;11.07;9.97;;;-0.10;99.90;;;;;;5047595;28;20256;-73
2023/04/07 04:31:54;;;;;;;9.73;8.83;;;-0.10;99.90;;;;;;5043035;28;20258;-74
2023/04/07 04:34:20;;;;;;;13.13;9.87;;;-0.10;99.90;;;;;;5046145;28;20657;-73
2023/04/07 04:36:47;;;;;;;10.20;9.30;;;-0.10;99.90;;;;;;5047132;28;20271;-73
2023/04/07 04:39:13;;;;;;;10.07;9.03;;;-0.20;99.90;;;;;;5047003;28;20659;-74
2023/04/07 04:41:39;;;;;;;11.63;9.50;;;-0.20;99.90;;;;;;5042680;28;20216;-73
2023/04/07 04:44:05;;;;;;;10.47;9.37;;;-0.20;99.90;;;;;;5052465;28;20203;-73
2023/04/07 04:46:30;;;;;;;9.57;8.43;;;-0.30;99.90;;;;;;5035066;28;20649;-74
2023/04/07 04:48:56;;;;;;;10.30;8.70;;;-0.20;99.90;;;;;;5046225;28;20184;-73
2023/04/07 04:51:22;;;;;;;10.67;9.27;;;-0.20;99.90;;;;;;5042827;28;20180;-74
2023/04/07 04:53:48;;;;;;;10.47;9.37;;;-0.30;99.90;;;;;;5049367;28;20211;-74
2023/04/07 04:56:13;;;;;;;10.13;8.70;;;-0.20;99.90;;;;;;5052475;28;20183;-74
2023/04/07 04:58:41;;;;;;;9.40;8.43;;;-0.20;99.90;;;;;;5041781;28;20181;-74
2023/04/07 05:01:06;;;;;;;9.53;8.57;;;-0.10;99.90;;;;;;5034199;28;20179;-73
2023/04/07 05:03:32;;;;;;;9.40;8.40;;;-0.10;99.90;;;;;;5056108;28;20202;-73
2023/04/07 05:05:57;;;;;;;9.80;8.80;;;-0.10;99.90;;;;;;5049852;28;20175;-74
2023/04/07 05:08:23;;;;;;;9.10;8.30;;;-0.10;99.90;;;;;;5045060;28;20688;-75
2023/04/07 05:10:48;;;;;;;9.80;8.47;;;-0.10;99.90;;;;;;5049873;28;20232;-75
2023/04/07 05:13:14;;;;;;;8.83;8.13;;;0.00;99.90;;;;;;5038202;28;20223;-74
2023/04/07 05:15:41;;;;;;;9.03;8.13;;;0.10;99.90;;;;;;5048410;28;20180;-74
2023/04/07 05:18:07;;;;;;;10.07;8.80;;;0.20;99.90;;;;;;5052315;28;20183;-74
2023/04/07 05:20:32;;;;;;;8.40;7.57;;;0.20;99.90;;;;;;5050995;28;20202;-74
2023/04/07 05:22:58;;;;;;;9.13;8.00;;;0.30;99.90;;;;;;5045011;28;20201;-73
2023/04/07 05:25:23;;;;;;;8.93;8.03;;;0.40;99.90;;;;;;5054213;28;20190;-73
2023/04/07 05:27:49;;;;;;;9.27;7.93;;;0.40;99.90;;;;;;5050140;28;20266;-76
2023/04/07 05:30:15;;;;;;;8.67;7.87;;;0.50;99.90;;;;;;5049293;28;20180;-77
2023/04/07 05:32:40;;;;;;;8.83;7.83;;;0.60;99.90;;;;;;5052917;28;20206;-77
2023/04/07 05:35:06;;;;;;;9.57;8.67;;;0.70;99.90;;;;;;5039453;28;20475;-75
2023/04/07 05:37:32;;;;;;;9.40;8.00;;;0.70;99.90;;;;;;5055333;28;20603;-73
2023/04/07 05:39:58;;;;;;;9.17;8.23;;;0.80;99.90;;;;;;5047632;28;20180;-74
2023/04/07 05:42:23;;;;;;;9.63;8.03;;;0.90;99.90;;;;;;5054203;28;20188;-74
2023/04/07 05:44:49;;;;;;;9.37;8.37;;;1.00;99.90;;;;;;5051097;28;20197;-78
2023/04/07 05:47:15;;;;;;;9.23;7.83;;;1.10;99.90;;;;;;5054654;28;20210;-75
2023/04/07 05:49:44;;;;;;;10.40;9.30;;;1.20;99.90;;;;;;5054303;28;20262;-75
2023/04/07 05:52:11;;;;;;;8.50;7.70;;;1.40;99.90;;;;;;5040436;28;20256;-76
2023/04/07 05:54:39;;;;;;;11.07;8.80;;;1.50;99.90;;;;;;5052142;28;20553;-77
2023/04/07 05:57:04;;;;;;;9.00;8.10;;;1.60;99.90;;;;;;5049718;28;20524;-77
2023/04/07 05:59:30;;;;;;;9.67;8.67;;;1.70;99.90;;;;;;5035038;28;20348;-76
2023/04/07 06:01:55;;;;;;;10.57;8.47;;;1.70;99.90;;;;;;5057701;28;20188;-77
2023/04/07 06:04:21;;;;;;;9.90;8.90;;;1.90;99.90;;;;;;5034583;28;20687;-76
2023/04/07 06:06:46;;;;;;;10.03;8.03;;;2.00;99.90;;;;;;5053819;28;20582;-77
2023/04/07 06:09:12;;;;;;;8.93;8.13;;;2.10;99.90;;;;;;5051739;28;20217;-78
2023/04/07 06:11:38;;;;;;;8.87;8.07;;;2.20;99.90;;;;;;5051912;28;20168;-77
2023/04/07 06:14:03;;;;;;;9.80;8.80;;;2.30;99.90;;;;;;5049564;28;20279;-76
2023/04/07 06:16:29;;;;;;;8.30;7.40;;;2.40;99.90;;;;;;5046391;28;20179;-76
2023/04/07 06:18:55;;;;;;;8.50;7.70;;;2.50;99.90;;;;;;5034369;28;20175;-76
2023/04/07 06:21:20;;;;;;;11.53;8.37;;;2.60;99.90;;;;;;5048292;28;20275;-77
2023/04/07 06:23:46;;;;;;;8.80;7.97;;;2.70;99.90;;;;;;5034952;28;20241;-77
2023/04/07 06:26:11;;;;;;;8.50;7.70;;;2.80;99.90;;;;;;5054218;28;20167;-76
2023/04/07 06:28:37;;;;;;;8.30;7.43;;;2.90;99.90;;;;;;5032802;28;21197;-76
2023/04/07 06:31:03;;;;;;;8.53;7.73;;;3.00;99.90;;;;;;5047819;28;20184;-76
2023/04/07 06:33:29;;;;;;;8.97;8.07;;;3.00;99.90;;;;;;5039638;28;20206;-76
2023/04/07 06:35:55;;;;;;;13.50;10.53;;;3.00;99.90;;;;;;5050318;28;20179;-77
2023/04/07 06:38:21;;;;;;;8.53;7.53;;;3.10;99.90;;;;;;5051289;28;20274;-76
2023/04/07 06:40:47;;;;;;;8.70;7.80;;;3.30;99.90;;;;;;5048388;28;20191;-76
2023/04/07 06:43:12;;;;;;;9.87;8.87;;;3.40;99.90;;;;;;5037370;28;20207;-77
2023/04/07 06:45:38;;;;;;;12.13;8.73;;;3.60;99.90;;;;;;5051527;28;20721;-76
2023/04/07 06:48:04;;;;;;;12.07;9.20;;;3.70;99.90;;;;;;5051156;28;20207;-76
2023/04/07 06:50:29;;;;;;;10.17;7.77;;;3.70;99.90;;;;;;5030380;28;20531;-77
2023/04/07 06:52:55;;;;;;;8.17;7.37;;;3.80;99.90;;;;;;5046618;28;20219;-77
2023/04/07 06:55:22;;;;;;;9.03;8.00;;;3.80;99.90;;;;;;5032784;28;20271;-77
2023/04/07 06:57:49;;;;;;;8.60;7.53;;;3.90;99.90;;;;;;5048827;28;20778;-77
2023/04/07 07:00:15;;;;;;;9.20;8.30;;;4.00;99.90;;;;;;5045861;28;20226;-76
2023/04/07 07:02:41;;;;;;;10.03;8.67;;;4.10;99.90;;;;;;5045643;28;20294;-77
2023/04/07 07:05:07;;;;;;;9.93;8.93;;;4.20;99.90;;;;;;5050067;28;20185;-75
2023/04/07 07:07:32;;;;;;;10.03;9.03;;;4.20;99.90;;;;;;5050915;28;20626;-77
2023/04/07 07:09:58;;;;;;;9.80;8.80;;;4.30;99.90;;;;;;5050564;28;20179;-78
2023/04/07 07:12:23;;;;;;;10.67;8.70;;;4.50;99.90;;;;;;5054710;28;20202;-77
2023/04/07 07:14:49;;;;;;;9.65;7.78;;;4.50;99.90;;;;;;5044230;28;20188;-77
2023/04/07 07:17:15;;;;;;;8.52;7.57;;;4.50;99.90;;;;;;5031831;28;20180;-77
2023/04/07 07:19:41;;;;;;;10.40;8.30;;;4.40;99.90;;;;;;5047358;28;20227;-77
2023/04/07 07:22:07;;;;;;;10.63;8.60;;;4.50;99.90;;;;;;5045516;28;20310;-77
2023/04/07 07:24:33;;;;;;;9.03;8.23;;;4.60;99.90;;;;;;5049984;28;20230;-77
2023/04/07 07:27:00;;;;;;;11.13;8.68;;;4.70;99.90;;;;;;5049747;28;20204;-77
2023/04/07 07:29:26;;;;;;;9.45;8.48;;;4.90;99.90;;;;;;5047788;28;20195;-77
2023/04/07 07:31:52;;;;;;;10.80;9.10;;;5.00;99.90;;;;;;5049233;28;20255;-78
2023/04/07 07:34:18;;;;;;;9.70;8.68;;;5.00;99.90;;;;;;5052251;28;20292;-78
2023/04/07 07:36:44;;;;;;;10.63;8.90;;;5.10;99.90;;;;;;5043726;28;20183;-78
2023/04/07 07:39:10;;;;;;;9.65;8.65;;;5.20;99.90;;;;;;5042032;28;20673;-78
2023/04/07 07:41:35;;;;;;;9.70;8.70;;;5.40;99.90;;;;;;5047333;28;20207;-78
2023/04/07 07:44:01;;;;;;;9.75;8.77;;;5.50;99.90;;;;;;5052387;28;20278;-77
2023/04/07 07:46:26;;;;;;;10.38;9.38;;;5.60;99.90;;;;;;5032883;28;20580;-78
2023/04/07 07:48:52;;;;;;;9.65;8.75;;;5.60;99.90;;;;;;5036513;28;20275;-74
2023/04/07 07:51:18;;;;;;;10.02;9.02;;;5.80;99.90;;;;;;5050274;28;20188;-74
2023/04/07 07:53:44;;;;;;;9.40;8.45;;;6.00;99.90;;;;;;5042875;28;20729;-75
2023/04/07 07:56:10;;;;;;;9.20;8.30;;;6.20;99.90;;;;;;5029654;28;20196;-76
2023/04/07 07:58:36;;;;;;;9.75;8.75;;;6.30;99.90;;;;;;5030390;28;20618;-77
2023/04/07 08:01:02;;;;;;;10.45;9.10;;;6.50;99.90;;;;;;5033564;28;20237;-75
2023/04/07 08:03:27;;;;;;;9.45;7.93;;;6.70;99.90;;;;;;5052553;28;20208;-75
2023/04/07 08:05:53;;;;;;;11.10;8.70;;;6.80;99.90;;;;;;5056517;28;20529;-77
2023/04/07 08:08:18;;;;;;;9.15;8.07;;;6.90;99.90;;;;;;5035172;28;20206;-77
2023/04/07 08:10:44;;;;;;;9.95;8.95;;;7.00;99.90;;;;;;5047120;28;20622;-79
2023/04/07 08:13:09;;;;;;;9.82;8.82;;;7.10;99.90;;;;;;5054836;28;20191;-77
2023/04/07 08:15:35;;;;;;;10.50;9.55;;;7.20;99.90;;;;;;5048402;28;20180;-76
2023/04/07 08:18:03;;;;;;;9.95;8.95;;;7.40;99.90;;;;;;5050002;28;20190;-75
2023/04/07 08:20:30;;;;;;;10.15;9.20;;;7.40;99.90;;;;;;5044194;28;20188;-75
2023/04/07 08:22:56;;;;;;;9.45;8.55;;;7.50;99.90;;;;;;5048915;28;20202;-76
2023/04/07 08:25:21;;;;;;;9.68;8.55;;;7.60;99.90;;;;;;5054542;28;20187;-78
2023/04/07 08:27:47;;;;;;;11.30;8.85;;;7.80;99.90;;;;;;5048888;28;20215;-78
2023/04/07 08:30:13;;;;;;;9.98;9.07;;;7.90;99.90;;;;;;5046811;28;20179;-77
2023/04/07 08:32:43;;;;;;;10.60;9.50;;;8.10;99.90;;;;;;5049380;28;20164;-78
2023/04/07 08:35:09;;;;;;;11.18;9.55;;;8.20;99.80;;;;;;5048821;28;20178;-78
2023/04/07 08:37:37;;;;;;;10.18;9.10;;;8.30;99.10;;;;;;5044596;28;20176;-78
2023/04/07 08:40:04;;;;;;;10.85;9.75;;;8.40;99.00;;;;;;5053281;28;20801;-75
2023/04/07 08:42:31;;;;;;;9.65;8.68;;;8.60;98.30;;;;;;5049486;28;20279;-75
2023/04/07 08:45:02;;;;;;;10.30;9.05;;;8.80;97.40;;;;;;5045183;28;20180;-76
2023/04/07 08:47:31;;;;;;;13.07;8.80;;;9.00;97.00;;;;;;5042420;28;20208;-76
2023/04/07 08:50:00;;;;;;;8.98;8.05;;;9.20;96.70;;;;;;5033328;28;20266;-75
2023/04/07 08:52:52;;;;;;;10.18;8.88;;;9.30;96.00;;;;;;5042302;28;20172;-76
2023/04/07 08:55:18;;;;;;;10.32;8.80;;;9.60;95.50;;;;;;5047808;28;20184;-75
2023/04/07 08:57:45;;;;;;;9.38;8.55;;;9.80;94.80;;;;;;5049072;28;20271;-77
2023/04/07 09:00:11;;;;;;;10.27;9.27;;;10.00;93.40;;;;;;5041369;28;20226;-77
2023/04/07 09:02:46;;;;;;;10.02;9.02;;;10.30;92.60;;;;;;5034189;28;20625;-78
2023/04/07 09:05:15;;;;;;;9.50;8.60;;;10.50;91.80;;;;;;5048545;28;20175;-77
2023/04/07 09:07:44;;;;;;;9.25;8.35;;;11.40;91.00;;;;;;5042362;28;20663;-78
2023/04/07 09:10:10;;;;;;;9.90;9.00;;;13.40;86.70;;;;;;5044850;28;20183;-78
2023/04/07 09:12:37;;;;;;;9.52;8.63;;;15.80;77.80;;;;;;5046830;28;20183;-78
2023/04/07 09:15:04;;;;;;;9.85;8.95;;;18.10;66.90;;;;;;5046641;28;20168;-78
2023/04/07 09:17:29;;;;;;;9.68;8.75;;;19.90;57.50;;;;;;5047927;28;20234;-79
2023/04/07 09:19:56;;;;;;;9.15;8.25;;;20.60;53.80;;;;;;5047586;28;20249;-79
2023/04/07 09:22:49;;;;;;;9.07;8.25;;;21.60;51.60;;;;;;5061084;28;20177;-79
2023/04/07 09:25:16;;;;;;;9.43;8.63;;;23.00;49.40;;;;;;5056357;28;20272;-79
2023/04/07 09:27:53;;;;;;;9.20;8.35;;;24.00;46.80;;;;;;5047946;28;20207;-79
2023/04/07 09:30:19;;;;;;;9.38;8.52;;;24.90;44.50;;;;;;5061306;28;20180;-79
2023/04/07 09:32:45;;;;;;;10.10;9.20;;;25.50;43.00;;;;;;5041083;28;20214;-78
2023/04/07 09:35:10;;;;;;;9.80;8.90;;;26.10;42.30;;;;;;5051506;28;20220;-80
2023/04/07 09:37:36;;;;;;;9.50;8.70;;;26.60;41.50;;;;;;5045232;28;20460;-79
2023/04/07 09:40:02;;;;;;;9.55;8.75;;;27.00;40.00;;;;;;5052204;28;20187;-79
2023/04/07 09:42:31;;;;;;;9.57;8.63;;;27.40;39.20;;;;;;5027398;28;20305;-76
2023/04/07 09:45:00;;;;;;;9.32;8.52;;;27.40;39.40;;;;;;5043842;28;20229;-78
2023/04/07 09:47:31;;;;;;;10.32;9.43;;;26.10;50.60;;;;;;5050407;28;20713;-79
2023/04/07 09:49:58;;;;;;;10.30;9.40;;;25.00;50.50;;;;;;5057309;28;20190;-78
2023/04/07 09:52:48;;;;;;;9.80;8.93;;;25.20;52.00;;;;;;5053203;28;20711;-79
2023/04/07 09:55:14;;;;;;;10.27;9.18;;;26.00;48.80;;;;;;5033146;28;20215;-83
2023/04/07 09:57:41;;;;;;;11.23;9.55;;;25.10;49.50;;;;;;5046590;28;20172;-81
2023/04/07 10:00:08;;;;;;;9.15;8.38;;;25.20;48.00;;;;;;5053511;28;20266;-81
2023/04/07 10:02:34;;;;;;;9.95;9.15;;;26.90;43.20;;;;;;5052288;28;20196;-82
2023/04/07 10:05:00;;;;;;;9.13;8.43;;;26.90;43.70;;;;;;5054751;28;20195;-82
2023/04/07 10:07:26;;;;;;;11.70;9.13;;;27.70;43.20;;;;;;5035717;28;20215;-81
2023/04/07 10:09:52;;;;;;;9.40;8.68;;;26.50;42.30;;;;;;5059361;28;20180;-82
2023/04/07 10:12:18;;;;;;;9.57;8.85;;;26.90;40.80;;;;;;5049535;28;20176;-81
2023/04/07 10:14:46;;;;;;;8.85;8.23;;;28.10;39.70;;;;;;5051979;28;20197;-79
2023/04/07 10:17:17;;;;;;;10.60;9.63;;;28.80;39.60;;;;;;5054259;28;20186;-78
2023/04/07 10:19:44;;;;;;;10.10;8.65;;;30.30;36.10;;;;;;5030372;28;20794;-79
2023/04/07 10:22:11;;;;;;;10.38;9.25;;;27.90;39.80;;;;;;5034216;28;20275;-78
2023/04/07 10:24:43;;;;;;;9.98;9.00;;;26.20;38.60;;;;;;5054438;28;20678;-82
2023/04/07 10:27:13;;;;;;;9.60;8.80;;;25.40;38.90;;;;;;5049582;28;20203;-77
2023/04/07 10:29:42;;;;;;;9.48;8.57;;;27.00;39.10;;;;;;5047981;28;20200;-78
2023/04/07 10:32:08;;;;;;;9.98;9.18;;;29.30;39.30;;;;;;5037715;28;20175;-78
2023/04/07 10:34:49;;;;;;;9.85;9.05;;;27.40;39.50;;;;;;5052387;28;20200;-81
2023/04/07 10:37:18;;;;;;;9.32;8.52;;;27.40;38.50;;;;;;5049742;28;20183;-79
2023/04/07 10:39:44;;;;;;;10.35;8.82;;;27.70;36.90;;;;;;5048776;28;20707;-79
2023/04/07 10:42:38;;;;;;;9.13;8.43;;;26.80;38.20;;;;;;5051222;28;20183;-79
2023/04/07 10:45:08;;;;;;;9.32;8.57;;;27.20;37.80;;;;;;5036774;28;20182;-80
2023/04/07 10:47:37;;;;;;;9.98;9.07;;;26.60;39.10;;;;;;5053963;28;20598;-79
2023/04/07 10:50:21;;;;;;;9.20;8.40;;;26.60;37.40;;;;;;5050151;28;20589;-80
2023/04/07 10:52:48;;;;;;;9.18;8.48;;;27.80;38.70;;;;;;5055445;28;20278;-79
2023/04/07 10:55:46;;;;;;;10.15;9.25;;;30.50;35.50;;;;;;5053936;28;20180;-80
2023/04/07 10:58:17;;;;;;;9.90;9.10;;;29.30;35.20;;;;;;5026555;28;20262;-78
2023/04/07 11:01:03;;;;;;;8.75;8.05;;;27.10;36.70;;;;;;5052462;28;20574;-77
2023/04/07 11:03:34;;;;;;;9.00;8.30;;;26.70;40.00;;;;;;5044029;28;20254;-79
2023/04/07 11:06:03;;;;;;;8.63;8.02;;;27.00;38.30;;;;;;5045303;28;20180;-78
2023/04/07 11:08:43;;;;;;;8.63;7.93;;;27.00;38.60;;;;;;5053287;28;20256;-78
2023/04/07 11:11:10;;;;;;;8.70;7.90;;;25.10;38.90;;;;;;5034490;28;20176;-78
2023/04/07 11:13:49;;;;;;;9.23;8.43;;;24.00;40.30;;;;;;5028522;28;20200;-79
2023/04/07 11:16:17;;;;;;;9.73;8.88;;;26.20;38.20;;;;;;5048564;28;20172;-79
2023/04/07 11:18:45;;;;;;;8.75;8.05;;;25.60;39.10;;;;;;5049395;28;20256;-78
2023/04/07 11:21:10;;;;;;;8.77;8.07;;;25.50;39.60;;;;;;5042622;28;20195;-80
2023/04/07 11:23:41;;;;;;;8.80;8.10;;;25.60;39.70;;;;;;5050672;28;20200;-80
2023/04/07 11:26:08;;;;;;;8.18;7.57;;;26.20;38.20;;;;;;5049620;28;20172;-80
2023/04/07 11:28:33;;;;;;;8.48;7.78;;;26.80;36.60;;;;;;5033942;28;20243;-79
2023/04/07 11:30:59;;;;;;;9.05;8.35;;;27.00;36.00;;;;;;5049143;28;20238;-80
2023/04/07 11:33:28;;;;;;;8.00;7.40;;;25.00;39.80;;;;;;5045735;28;20196;-79
2023/04/07 11:35:58;;;;;;;8.07;7.40;;;26.00;38.20;;;;;;5051490;28;20176;-78
2023/04/07 11:38:26;;;;;;;8.55;7.85;;;25.00;38.70;;;;;;5051686;28;20183;-78
2023/04/07 11:40:53;;;;;;;8.23;7.57;;;25.20;38.90;;;;;;5049236;28;20650;-78
2023/04/07 11:43:22;;;;;;;8.75;8.05;;;25.30;38.60;;;;;;5033142;28;21000;-79
2023/04/07 11:46:05;;;;;;;8.23;7.53;;;26.40;38.10;;;;;;5050601;28;20191;-79
2023/04/07 11:48:33;;;;;;;8.93;8.15;;;26.30;37.90;;;;;;5045503;28;20239;-79
2023/04/07 11:50:59;;;;;;;8.65;7.95;;;26.50;38.70;;;;;;5046557;28;20183;-79
2023/04/07 11:53:32;;;;;;;10.10;9.30;;;27.50;37.50;;;;;;5047702;28;20280;-80
2023/04/07 11:56:08;;;;;;;9.73;8.82;;;27.60;36.00;;;;;;5053139;28;20179;-80
2023/04/07 11:58:35;;;;;;;9.35;8.55;;;25.70;38.30;;;;;;5031666;28;20176;-79
2023/04/07 12:01:05;;;;;;;8.90;8.20;;;23.90;38.90;;;;;;5047797;28;20207;-80
2023/04/07 12:03:34;;;;;;;8.88;8.07;;;23.50;39.70;;;;;;5044682;28;20630;-80
2023/04/07 12:06:01;;;;;;;8.90;8.13;;;23.70;40.00;;;;;;5055191;28;20258;-79
2023/04/07 12:08:41;;;;;;;9.30;8.45;;;24.80;38.90;;;;;;5043629;28;20560;-79
2023/04/07 12:11:07;;;;;;;8.95;8.07;;;24.00;38.50;;;;;;5051309;28;20255;-79
2023/04/07 12:13:33;;;;;;;8.82;8.13;;;24.30;38.10;;;;;;5046840;28;20199;-79
2023/04/07 12:15:59;;;;;;;9.25;8.45;;;22.80;40.30;;;;;;5044175;28;20172;-79
2023/04/07 12:18:25;;;;;;;8.18;7.55;;;22.70;40.10;;;;;;5048079;28;20191;-80
2023/04/07 12:20:51;;;;;;;9.15;8.35;;;23.40;40.70;;;;;;5043462;28;20202;-79
2023/04/07 12:23:17;;;;;;;8.98;8.18;;;24.30;39.70;;;;;;5040878;28;20196;-79
2023/04/07 12:25:42;;;;;;;8.05;7.43;;;24.70;39.10;;;;;;5050280;28;20184;-80
2023/04/07 12:28:08;;;;;;;7.88;7.25;;;24.60;39.00;;;;;;5034701;28;20253;-80
2023/04/07 12:30:35;;;;;;;8.48;7.60;;;24.80;37.70;;;;;;5035262;28;20176;-80
2023/04/07 12:33:02;;;;;;;8.25;7.55;;;25.20;39.00;;;;;;5034017;28;20273;-81
2023/04/07 12:35:28;;;;;;;8.23;7.63;;;24.70;39.80;;;;;;5057261;28;20172;-80
2023/04/07 12:37:54;;;;;;;9.45;8.55;;;24.40;39.50;;;;;;5050332;28;20204;-79
2023/04/07 12:40:20;;;;;;;8.90;8.10;;;23.60;41.50;;;;;;5044099;28;20215;-80
2023/04/07 12:42:45;;;;;;;8.23;7.63;;;24.50;40.30;;;;;;5047567;28;20208;-79
2023/04/07 12:45:11;;;;;;;8.77;8.10;;;25.30;38.60;;;;;;5053274;28;20232;-79
2023/04/07 12:47:36;;;;;;;8.55;7.88;;;23.30;39.90;;;;;;5052533;28;20238;-80
2023/04/07 12:50:02;;;;;;;7.82;7.20;;;23.40;39.40;;;;;;5048712;28;20592;-79